Northwest Alabama Regional Airport
KMSL : now visible

Airfield :











YOU CAN JOIN US ON...

 
LOGIN :

Register | Disclaimer

   EN    FR    IT 

 









Legend :    VFR   Marginal VFR   IFR   Intensive IFR   Very Intensive IFR
Visi :
Ceiling :
>= 8 km
>= 3000ft
5 to 8 km
1000 to 3000 ft
1500m to 5 km
500 to 1000 ft
800 to 1500m
200 to 500 ft
< 800m
< 200 ft
Symbols :   Thunderstorms  Fog  Heavy snow  Heavy precipitations  Wind > 20 kt






- Airport Elevation : 551 ft
- IATA code : MSL


KMSL - Northwest Alabama Regional

CURRENT METAR :
  • 080853Z AUTO 15004KT 1/2SM FG VV002 18/18 A3019 RMK AO2 SLP219 T01830178 56013

EXPIRED METARs :
  • 080840Z AUTO 15005KT 1/2SM FG VV004 18/18 A3019 RMK AO2 T01830183
  • 080803Z AUTO 15005KT 4SM BR OVC005 19/18 A3019 RMK AO2 T01890183
  • 080734Z AUTO 14005KT 1 1/2SM BR OVC003 19/18 A3020 RMK AO2 T01890183
  • 080724Z AUTO 13004KT 2SM BR OVC003 19/18 A3020 RMK AO2 T01890183
  • 080714Z AUTO 12004KT 1/2SM FG VV003 19/19 A3021 RMK AO2 T01890189
  • 080653Z AUTO 11003KT 1/4SM FG VV003 19/18 A3021 RMK AO2 SLP226 T01890183
  • 080628Z AUTO 00000KT 1/4SM FG VV004 19/19 A3022 RMK AO2 T01890189

TAF KMSL
Valid from the 08 at 06:00 until the 09 at 06:00 UTC


080530Z 0806/0906 00000KT 1/2SM FG OVC008
TEMPO 0806/0810 1/4SM FG VV004
FM081000 19005KT 4SM -SHRA BKN010
FM081700 23010G15KT P6SM BKN015
KZME FIR / North America



MET'MAP, your aeronautical weather chart ! - Copyright ORBIFLY December 2007 - Disclaimer

ORBIFLY MET'MAP TEAM :

Programming & Development : Alexandra Zaïnal
Original concept : Baudouin d'Aumeries
Technical & hardware support : Manuel Goepfert
Assistance : Marc-Olivier Méhu




SOURCES & CREDITS :

   NOAA       Earth
Advisory